sensor_id;sensor_type;location;lat;lon;timestamp;temperature;humidity
15959;DHT22;8078;47.822;9.402;2023-12-07T00:01:33;0.00;99.90
15959;DHT22;8078;47.822;9.402;2023-12-07T00:04:02;0.00;99.90
15959;DHT22;8078;47.822;9.402;2023-12-07T00:06:28;0.00;99.90
15959;DHT22;8078;47.822;9.402;2023-12-07T00:08:54;0.00;99.90
15959;DHT22;8078;47.822;9.402;2023-12-07T00:11:22;0.00;99.90
15959;DHT22;8078;47.822;9.402;2023-12-07T00:13:48;-0.10;99.90
15959;DHT22;8078;47.822;9.402;2023-12-07T00:16:14;-0.10;99.90
15959;DHT22;8078;47.822;9.402;2023-12-07T00:18:39;-0.10;99.90
15959;DHT22;8078;47.822;9.402;2023-12-07T00:21:05;0.00;99.90
15959;DHT22;8078;47.822;9.402;2023-12-07T00:23:30;0.00;99.90
15959;DHT22;8078;47.822;9.402;2023-12-07T00:25:56;0.00;99.90
15959;DHT22;8078;47.822;9.402;2023-12-07T00:28:21;0.10;99.90
15959;DHT22;8078;47.822;9.402;2023-12-07T00:30:47;0.10;99.90
15959;DHT22;8078;47.822;9.402;2023-12-07T00:33:12;0.10;99.90
15959;DHT22;8078;47.822;9.402;2023-12-07T00:35:38;0.10;99.90
15959;DHT22;8078;47.822;9.402;2023-12-07T00:38:04;0.10;99.90
15959;DHT22;8078;47.822;9.402;2023-12-07T00:40:31;0.20;99.90
15959;DHT22;8078;47.822;9.402;2023-12-07T00:43:01;0.30;99.90
15959;DHT22;8078;47.822;9.402;2023-12-07T00:45:26;0.20;99.90
15959;DHT22;8078;47.822;9.402;2023-12-07T00:47:52;0.20;99.90
15959;DHT22;8078;47.822;9.402;2023-12-07T00:50:17;0.30;99.90
15959;DHT22;8078;47.822;9.402;2023-12-07T00:52:43;0.20;99.90
15959;DHT22;8078;47.822;9.402;2023-12-07T00:55:08;0.20;99.90
15959;DHT22;8078;47.822;9.402;2023-12-07T00:57:34;0.20;99.90
15959;DHT22;8078;47.822;9.402;2023-12-07T00:59:59;0.20;99.90
15959;DHT22;8078;47.822;9.402;2023-12-07T01:02:25;0.20;99.90
15959;DHT22;8078;47.822;9.402;2023-12-07T01:04:50;0.20;99.90
15959;DHT22;8078;47.822;9.402;2023-12-07T01:07:16;0.20;99.90
15959;DHT22;8078;47.822;9.402;2023-12-07T01:09:42;0.20;99.90
15959;DHT22;8078;47.822;9.402;2023-12-07T01:12:07;0.20;99.90
15959;DHT22;8078;47.822;9.402;2023-12-07T01:14:33;0.20;99.90
15959;DHT22;8078;47.822;9.402;2023-12-07T01:16:58;0.10;99.90
15959;DHT22;8078;47.822;9.402;2023-12-07T01:19:24;0.10;99.90
15959;DHT22;8078;47.822;9.402;2023-12-07T01:21:50;0.10;99.90
15959;DHT22;8078;47.822;9.402;2023-12-07T01:24:16;0.10;99.90
15959;DHT22;8078;47.822;9.402;2023-12-07T01:26:41;0.20;99.90
15959;DHT22;8078;47.822;9.402;2023-12-07T01:29:07;0.20;99.90
15959;DHT22;8078;47.822;9.402;2023-12-07T01:31:33;0.10;99.90
15959;DHT22;8078;47.822;9.402;2023-12-07T01:33:58;0.10;99.90
15959;DHT22;8078;47.822;9.402;2023-12-07T01:36:24;0.10;99.90
15959;DHT22;8078;47.822;9.402;2023-12-07T01:38:50;0.00;99.90
15959;DHT22;8078;47.822;9.402;2023-12-07T01:41:15;0.00;99.90
15959;DHT22;8078;47.822;9.402;2023-12-07T01:43:45;0.00;99.90
15959;DHT22;8078;47.822;9.402;2023-12-07T01:46:11;0.00;99.90
15959;DHT22;8078;47.822;9.402;2023-12-07T01:48:37;0.00;99.90
15959;DHT22;8078;47.822;9.402;2023-12-07T01:51:03;0.00;99.90
15959;DHT22;8078;47.822;9.402;2023-12-07T01:53:29;0.00;99.90
15959;DHT22;8078;47.822;9.402;2023-12-07T01:55:55;0.00;99.90
15959;DHT22;8078;47.822;9.402;2023-12-07T01:58:21;0.00;99.90
15959;DHT22;8078;47.822;9.402;2023-12-07T02:00:48;0.00;99.90
15959;DHT22;8078;47.822;9.402;2023-12-07T02:03:16;0.00;99.90
15959;DHT22;8078;47.822;9.402;2023-12-07T02:05:43;0.00;99.90
15959;DHT22;8078;47.822;9.402;2023-12-07T02:08:11;0.00;99.90
15959;DHT22;8078;47.822;9.402;2023-12-07T02:10:37;-0.10;99.90
15959;DHT22;8078;47.822;9.402;2023-12-07T02:13:03;0.00;99.90
15959;DHT22;8078;47.822;9.402;2023-12-07T02:15:29;0.10;99.90
15959;DHT22;8078;47.822;9.402;2023-12-07T02:18:14;0.20;99.90
15959;DHT22;8078;47.822;9.402;2023-12-07T02:21:10;0.30;99.90
15959;DHT22;8078;47.822;9.402;2023-12-07T02:23:32;0.20;99.90
15959;DHT22;8078;47.822;9.402;2023-12-07T02:26:08;0.10;99.90
15959;DHT22;8078;47.822;9.402;2023-12-07T02:28:35;0.00;99.90
15959;DHT22;8078;47.822;9.402;2023-12-07T02:31:01;0.00;99.90
15959;DHT22;8078;47.822;9.402;2023-12-07T02:33:26;-0.10;99.90
15959;DHT22;8078;47.822;9.402;2023-12-07T02:35:52;-0.10;99.90
15959;DHT22;8078;47.822;9.402;2023-12-07T02:38:18;-0.20;99.90
15959;DHT22;8078;47.822;9.402;2023-12-07T02:40:44;-0.20;48.50
15959;DHT22;8078;47.822;9.402;2023-12-07T02:43:11;-0.20;1.00
15959;DHT22;8078;47.822;9.402;2023-12-07T02:45:37;-0.30;1.00
15959;DHT22;8078;47.822;9.402;2023-12-07T02:48:03;-0.30;1.00
15959;DHT22;8078;47.822;9.402;2023-12-07T02:50:28;-0.40;1.00
15959;DHT22;8078;47.822;9.402;2023-12-07T02:52:54;-0.50;1.00
15959;DHT22;8078;47.822;9.402;2023-12-07T02:55:21;-0.50;1.00
15959;DHT22;8078;47.822;9.402;2023-12-07T02:57:47;-0.60;1.00
15959;DHT22;8078;47.822;9.402;2023-12-07T03:00:12;-0.70;1.00
15959;DHT22;8078;47.822;9.402;2023-12-07T03:02:40;-0.70;1.00
15959;DHT22;8078;47.822;9.402;2023-12-07T03:05:06;-0.80;1.00
15959;DHT22;8078;47.822;9.402;2023-12-07T03:07:33;-0.80;1.00
15959;DHT22;8078;47.822;9.402;2023-12-07T03:09:59;-0.80;1.00
15959;DHT22;8078;47.822;9.402;2023-12-07T03:12:24;-0.80;1.00
15959;DHT22;8078;47.822;9.402;2023-12-07T03:14:50;-0.80;1.00
15959;DHT22;8078;47.822;9.402;2023-12-07T03:17:15;-0.80;1.00
15959;DHT22;8078;47.822;9.402;2023-12-07T03:19:41;-0.80;1.00
15959;DHT22;8078;47.822;9.402;2023-12-07T03:22:07;-0.80;1.00
15959;DHT22;8078;47.822;9.402;2023-12-07T03:24:37;-0.80;1.00
15959;DHT22;8078;47.822;9.402;2023-12-07T03:27:03;-0.50;1.00
15959;DHT22;8078;47.822;9.402;2023-12-07T03:29:30;-0.30;1.00
15959;DHT22;8078;47.822;9.402;2023-12-07T03:31:55;-0.20;1.00
15959;DHT22;8078;47.822;9.402;2023-12-07T03:34:21;-0.30;1.00
15959;DHT22;8078;47.822;9.402;2023-12-07T03:36:47;-0.30;1.00
15959;DHT22;8078;47.822;9.402;2023-12-07T03:39:14;-0.40;1.00
15959;DHT22;8078;47.822;9.402;2023-12-07T03:41:41;-0.40;1.00
15959;DHT22;8078;47.822;9.402;2023-12-07T03:44:07;-0.40;1.00
15959;DHT22;8078;47.822;9.402;2023-12-07T03:46:32;-0.50;1.00
15959;DHT22;8078;47.822;9.402;2023-12-07T03:48:58;-0.50;1.00
15959;DHT22;8078;47.822;9.402;2023-12-07T03:51:26;-0.50;1.00
15959;DHT22;8078;47.822;9.402;2023-12-07T03:53:51;-0.50;1.00
15959;DHT22;8078;47.822;9.402;2023-12-07T03:56:24;-0.50;1.00
15959;DHT22;8078;47.822;9.402;2023-12-07T03:58:50;-0.50;1.00
15959;DHT22;8078;47.822;9.402;2023-12-07T04:01:15;-0.60;1.00
15959;DHT22;8078;47.822;9.402;2023-12-07T04:03:41;-0.60;1.00
15959;DHT22;8078;47.822;9.402;2023-12-07T04:06:07;-0.60;1.00
15959;DHT22;8078;47.822;9.402;2023-12-07T04:08:32;-0.70;1.00
15959;DHT22;8078;47.822;9.402;2023-12-07T04:10:58;-0.70;1.00
15959;DHT22;8078;47.822;9.402;2023-12-07T04:13:24;-0.70;1.00
15959;DHT22;8078;47.822;9.402;2023-12-07T04:15:49;-0.80;1.00
15959;DHT22;8078;47.822;9.402;2023-12-07T04:18:15;-0.80;1.00
15959;DHT22;8078;47.822;9.402;2023-12-07T04:20:41;-0.90;1.00
15959;DHT22;8078;47.822;9.402;2023-12-07T04:23:06;-0.90;1.00
15959;DHT22;8078;47.822;9.402;2023-12-07T04:25:32;-0.90;1.00
15959;DHT22;8078;47.822;9.402;2023-12-07T04:27:58;-1.00;1.00
15959;DHT22;8078;47.822;9.402;2023-12-07T04:30:24;-1.10;1.00
15959;DHT22;8078;47.822;9.402;2023-12-07T04:32:50;-1.10;1.00
15959;DHT22;8078;47.822;9.402;2023-12-07T04:35:15;-1.10;1.00
15959;DHT22;8078;47.822;9.402;2023-12-07T04:37:41;-1.10;1.80
15959;DHT22;8078;47.822;9.402;2023-12-07T04:40:07;-1.20;20.90
15959;DHT22;8078;47.822;9.402;2023-12-07T04:42:32;-1.10;53.40
15959;DHT22;8078;47.822;9.402;2023-12-07T04:44:58;-1.10;89.30
15959;DHT22;8078;47.822;9.402;2023-12-07T04:47:23;-1.10;95.30
15959;DHT22;8078;47.822;9.402;2023-12-07T04:49:49;-1.00;99.70
15959;DHT22;8078;47.822;9.402;2023-12-07T04:52:15;-0.90;99.90
15959;DHT22;8078;47.822;9.402;2023-12-07T04:54:40;-0.90;99.90
15959;DHT22;8078;47.822;9.402;2023-12-07T04:57:07;-0.80;99.90
15959;DHT22;8078;47.822;9.402;2023-12-07T04:59:32;-0.80;99.90
15959;DHT22;8078;47.822;9.402;2023-12-07T05:01:58;-0.80;99.90
15959;DHT22;8078;47.822;9.402;2023-12-07T05:04:23;-0.80;99.90
15959;DHT22;8078;47.822;9.402;2023-12-07T05:06:50;-0.70;99.90
15959;DHT22;8078;47.822;9.402;2023-12-07T05:09:16;-0.70;99.90
15959;DHT22;8078;47.822;9.402;2023-12-07T05:11:41;-0.70;99.90
15959;DHT22;8078;47.822;9.402;2023-12-07T05:14:07;-0.80;99.90
15959;DHT22;8078;47.822;9.402;2023-12-07T05:16:32;-0.80;99.90
15959;DHT22;8078;47.822;9.402;2023-12-07T05:18:59;-0.90;99.90
15959;DHT22;8078;47.822;9.402;2023-12-07T05:21:25;-0.90;99.90
15959;DHT22;8078;47.822;9.402;2023-12-07T05:23:51;-0.90;99.90
15959;DHT22;8078;47.822;9.402;2023-12-07T05:26:16;-1.00;99.90
15959;DHT22;8078;47.822;9.402;2023-12-07T05:28:42;-1.00;99.90
15959;DHT22;8078;47.822;9.402;2023-12-07T05:31:07;-0.90;99.90
15959;DHT22;8078;47.822;9.402;2023-12-07T05:33:33;-1.00;99.90
15959;DHT22;8078;47.822;9.402;2023-12-07T05:35:58;-1.00;99.90
15959;DHT22;8078;47.822;9.402;2023-12-07T05:38:26;-1.10;99.90
15959;DHT22;8078;47.822;9.402;2023-12-07T05:40:52;-1.10;99.90
15959;DHT22;8078;47.822;9.402;2023-12-07T05:43:18;-1.20;99.90
15959;DHT22;8078;47.822;9.402;2023-12-07T05:45:43;-1.10;99.90
15959;DHT22;8078;47.822;9.402;2023-12-07T05:48:10;-1.10;99.90
15959;DHT22;8078;47.822;9.402;2023-12-07T05:50:36;-1.00;99.90
15959;DHT22;8078;47.822;9.402;2023-12-07T05:53:05;-1.10;99.90
15959;DHT22;8078;47.822;9.402;2023-12-07T05:55:31;-1.10;99.90
15959;DHT22;8078;47.822;9.402;2023-12-07T05:57:57;-1.20;99.90
15959;DHT22;8078;47.822;9.402;2023-12-07T06:00:22;-1.20;99.90
15959;DHT22;8078;47.822;9.402;2023-12-07T06:02:48;-1.30;99.90
15959;DHT22;8078;47.822;9.402;2023-12-07T06:05:14;-1.30;99.90
15959;DHT22;8078;47.822;9.402;2023-12-07T06:07:40;-1.30;99.90
15959;DHT22;8078;47.822;9.402;2023-12-07T06:10:06;-1.40;99.90
15959;DHT22;8078;47.822;9.402;2023-12-07T06:12:32;-1.40;99.90
15959;DHT22;8078;47.822;9.402;2023-12-07T06:14:58;-1.40;99.90
15959;DHT22;8078;47.822;9.402;2023-12-07T06:17:23;-1.40;99.90
15959;DHT22;8078;47.822;9.402;2023-12-07T06:19:49;-1.50;99.90
15959;DHT22;8078;47.822;9.402;2023-12-07T06:22:14;-1.60;99.90
15959;DHT22;8078;47.822;9.402;2023-12-07T06:24:40;-1.60;99.90
15959;DHT22;8078;47.822;9.402;2023-12-07T06:27:06;-1.50;99.90
15959;DHT22;8078;47.822;9.402;2023-12-07T06:29:32;-1.50;99.90
15959;DHT22;8078;47.822;9.402;2023-12-07T06:31:57;-1.50;99.90
15959;DHT22;8078;47.822;9.402;2023-12-07T06:34:23;-1.50;99.90
15959;DHT22;8078;47.822;9.402;2023-12-07T06:36:48;-1.50;99.90
15959;DHT22;8078;47.822;9.402;2023-12-07T06:39:14;-1.60;99.90
15959;DHT22;8078;47.822;9.402;2023-12-07T06:41:39;-1.60;99.90
15959;DHT22;8078;47.822;9.402;2023-12-07T06:44:06;-1.60;99.90
15959;DHT22;8078;47.822;9.402;2023-12-07T06:46:32;-1.60;99.90
15959;DHT22;8078;47.822;9.402;2023-12-07T06:48:57;-1.70;99.90
15959;DHT22;8078;47.822;9.402;2023-12-07T06:51:23;-1.50;38.20
15959;DHT22;8078;47.822;9.402;2023-12-07T06:53:48;-1.50;9.50
15959;DHT22;8078;47.822;9.402;2023-12-07T06:56:14;-1.40;1.00
15959;DHT22;8078;47.822;9.402;2023-12-07T06:58:40;-1.50;1.00
15959;DHT22;8078;47.822;9.402;2023-12-07T07:01:06;-1.50;1.00
15959;DHT22;8078;47.822;9.402;2023-12-07T07:03:31;-1.50;1.00
15959;DHT22;8078;47.822;9.402;2023-12-07T07:05:57;-1.60;1.00
15959;DHT22;8078;47.822;9.402;2023-12-07T07:08:24;-1.40;1.00
15959;DHT22;8078;47.822;9.402;2023-12-07T07:10:51;-1.50;1.00
15959;DHT22;8078;47.822;9.402;2023-12-07T07:13:16;-1.40;1.00
15959;DHT22;8078;47.822;9.402;2023-12-07T07:15:44;-1.40;1.00
15959;DHT22;8078;47.822;9.402;2023-12-07T07:18:10;-1.50;1.00
15959;DHT22;8078;47.822;9.402;2023-12-07T07:20:36;-1.40;1.00
15959;DHT22;8078;47.822;9.402;2023-12-07T07:23:01;-1.30;1.00
15959;DHT22;8078;47.822;9.402;2023-12-07T07:25:27;-1.20;1.00
15959;DHT22;8078;47.822;9.402;2023-12-07T07:27:52;-1.10;1.00
15959;DHT22;8078;47.822;9.402;2023-12-07T07:30:20;-1.00;1.00
15959;DHT22;8078;47.822;9.402;2023-12-07T07:32:46;-1.10;1.00
15959;DHT22;8078;47.822;9.402;2023-12-07T07:35:11;-1.10;1.00
15959;DHT22;8078;47.822;9.402;2023-12-07T07:37:40;-1.00;1.00
15959;DHT22;8078;47.822;9.402;2023-12-07T07:40:07;-0.90;1.00
15959;DHT22;8078;47.822;9.402;2023-12-07T07:42:37;-1.00;1.00
15959;DHT22;8078;47.822;9.402;2023-12-07T07:45:04;-0.90;1.00
15959;DHT22;8078;47.822;9.402;2023-12-07T07:47:30;-0.90;1.00
15959;DHT22;8078;47.822;9.402;2023-12-07T07:49:56;-0.80;1.00
15959;DHT22;8078;47.822;9.402;2023-12-07T07:52:21;-0.80;1.00
15959;DHT22;8078;47.822;9.402;2023-12-07T07:54:47;-0.70;1.00
15959;DHT22;8078;47.822;9.402;2023-12-07T07:57:12;-0.70;1.00
15959;DHT22;8078;47.822;9.402;2023-12-07T07:59:38;-0.70;1.00
15959;DHT22;8078;47.822;9.402;2023-12-07T08:02:04;-0.60;1.00
15959;DHT22;8078;47.822;9.402;2023-12-07T08:04:29;-0.60;1.00
15959;DHT22;8078;47.822;9.402;2023-12-07T08:06:55;-0.60;1.00
15959;DHT22;8078;47.822;9.402;2023-12-07T08:09:20;-0.50;1.00
15959;DHT22;8078;47.822;9.402;2023-12-07T08:11:46;-0.50;1.00
15959;DHT22;8078;47.822;9.402;2023-12-07T08:14:11;-0.40;1.00
15959;DHT22;8078;47.822;9.402;2023-12-07T08:16:38;-0.40;1.00
15959;DHT22;8078;47.822;9.402;2023-12-07T08:19:03;-0.30;1.00
15959;DHT22;8078;47.822;9.402;2023-12-07T08:21:29;-0.20;1.00
15959;DHT22;8078;47.822;9.402;2023-12-07T08:23:55;-0.20;1.00
15959;DHT22;8078;47.822;9.402;2023-12-07T08:26:21;-0.20;1.00
15959;DHT22;8078;47.822;9.402;2023-12-07T08:28:46;-0.20;1.00
15959;DHT22;8078;47.822;9.402;2023-12-07T08:31:12;-0.20;1.00
15959;DHT22;8078;47.822;9.402;2023-12-07T08:33:37;-0.20;1.00
15959;DHT22;8078;47.822;9.402;2023-12-07T08:36:05;-0.10;1.00
15959;DHT22;8078;47.822;9.402;2023-12-07T08:38:31;-0.10;1.00
15959;DHT22;8078;47.822;9.402;2023-12-07T08:40:57;-0.10;1.00
15959;DHT22;8078;47.822;9.402;2023-12-07T08:43:23;-0.10;1.00
15959;DHT22;8078;47.822;9.402;2023-12-07T08:45:52;-0.10;1.00
15959;DHT22;8078;47.822;9.402;2023-12-07T08:48:19;0.00;1.00
15959;DHT22;8078;47.822;9.402;2023-12-07T08:50:44;0.00;1.00
15959;DHT22;8078;47.822;9.402;2023-12-07T08:53:10;0.10;1.00
15959;DHT22;8078;47.822;9.402;2023-12-07T08:55:36;0.00;1.00
15959;DHT22;8078;47.822;9.402;2023-12-07T08:58:01;0.00;1.00
15959;DHT22;8078;47.822;9.402;2023-12-07T09:00:32;0.00;1.00
15959;DHT22;8078;47.822;9.402;2023-12-07T09:02:58;0.10;1.00
15959;DHT22;8078;47.822;9.402;2023-12-07T09:05:26;0.20;1.00
15959;DHT22;8078;47.822;9.402;2023-12-07T09:07:51;0.30;1.00
15959;DHT22;8078;47.822;9.402;2023-12-07T09:10:18;0.30;1.00
15959;DHT22;8078;47.822;9.402;2023-12-07T09:12:44;0.40;1.00
15959;DHT22;8078;47.822;9.402;2023-12-07T09:15:10;0.40;1.00
15959;DHT22;8078;47.822;9.402;2023-12-07T09:17:39;0.50;1.00
15959;DHT22;8078;47.822;9.402;2023-12-07T09:20:08;0.50;1.00
15959;DHT22;8078;47.822;9.402;2023-12-07T09:22:46;0.50;1.00
15959;DHT22;8078;47.822;9.402;2023-12-07T09:25:15;0.50;1.00
15959;DHT22;8078;47.822;9.402;2023-12-07T09:27:40;0.60;1.00
15959;DHT22;8078;47.822;9.402;2023-12-07T09:30:07;0.70;1.00
15959;DHT22;8078;47.822;9.402;2023-12-07T09:32:36;0.90;1.00
15959;DHT22;8078;47.822;9.402;2023-12-07T09:35:04;1.10;1.00
15959;DHT22;8078;47.822;9.402;2023-12-07T09:37:30;1.20;1.00
15959;DHT22;8078;47.822;9.402;2023-12-07T09:39:56;1.40;1.00
15959;DHT22;8078;47.822;9.402;2023-12-07T09:42:22;1.60;1.00
15959;DHT22;8078;47.822;9.402;2023-12-07T09:44:48;1.50;1.00
15959;DHT22;8078;47.822;9.402;2023-12-07T09:47:14;1.20;1.00
15959;DHT22;8078;47.822;9.402;2023-12-07T09:49:39;1.20;1.00
15959;DHT22;8078;47.822;9.402;2023-12-07T09:52:06;1.30;1.00
15959;DHT22;8078;47.822;9.402;2023-12-07T09:54:33;1.40;1.00
15959;DHT22;8078;47.822;9.402;2023-12-07T09:57:00;1.40;1.00
15959;DHT22;8078;47.822;9.402;2023-12-07T09:59:26;1.40;1.00
15959;DHT22;8078;47.822;9.402;2023-12-07T10:01:52;1.40;1.00
15959;DHT22;8078;47.822;9.402;2023-12-07T10:04:22;1.30;1.00
15959;DHT22;8078;47.822;9.402;2023-12-07T10:06:49;1.50;1.00
15959;DHT22;8078;47.822;9.402;2023-12-07T10:09:15;1.60;1.00
15959;DHT22;8078;47.822;9.402;2023-12-07T10:11:41;1.70;1.00
15959;DHT22;8078;47.822;9.402;2023-12-07T10:14:08;1.80;1.00
15959;DHT22;8078;47.822;9.402;2023-12-07T10:16:34;1.80;1.00
15959;DHT22;8078;47.822;9.402;2023-12-07T10:19:16;1.90;1.00
15959;DHT22;8078;47.822;9.402;2023-12-07T10:21:43;2.20;1.00
15959;DHT22;8078;47.822;9.402;2023-12-07T10:24:09;2.20;1.00
15959;DHT22;8078;47.822;9.402;2023-12-07T10:26:35;2.30;1.00
15959;DHT22;8078;47.822;9.402;2023-12-07T10:29:05;2.40;1.00
15959;DHT22;8078;47.822;9.402;2023-12-07T10:31:31;2.40;1.00
15959;DHT22;8078;47.822;9.402;2023-12-07T10:33:58;2.40;1.00
15959;DHT22;8078;47.822;9.402;2023-12-07T10:36:24;2.40;1.00
15959;DHT22;8078;47.822;9.402;2023-12-07T10:38:50;2.50;1.00
15959;DHT22;8078;47.822;9.402;2023-12-07T10:41:19;2.60;1.00
15959;DHT22;8078;47.822;9.402;2023-12-07T10:43:48;2.50;1.00
15959;DHT22;8078;47.822;9.402;2023-12-07T10:46:16;2.50;1.00
15959;DHT22;8078;47.822;9.402;2023-12-07T10:48:44;2.40;1.00
15959;DHT22;8078;47.822;9.402;2023-12-07T10:51:17;2.70;1.00
15959;DHT22;8078;47.822;9.402;2023-12-07T10:53:45;2.80;1.00
15959;DHT22;8078;47.822;9.402;2023-12-07T10:56:16;2.70;1.00
15959;DHT22;8078;47.822;9.402;2023-12-07T10:58:45;2.40;1.00
15959;DHT22;8078;47.822;9.402;2023-12-07T11:01:11;2.40;1.00
15959;DHT22;8078;47.822;9.402;2023-12-07T11:03:39;2.60;1.00
15959;DHT22;8078;47.822;9.402;2023-12-07T11:06:06;2.60;1.00
15959;DHT22;8078;47.822;9.402;2023-12-07T11:08:40;2.50;1.00
15959;DHT22;8078;47.822;9.402;2023-12-07T11:11:24;2.40;1.00
15959;DHT22;8078;47.822;9.402;2023-12-07T11:13:58;2.50;1.00
15959;DHT22;8078;47.822;9.402;2023-12-07T11:16:38;2.50;1.00
15959;DHT22;8078;47.822;9.402;2023-12-07T11:19:05;2.60;1.00
15959;DHT22;8078;47.822;9.402;2023-12-07T11:21:51;2.70;1.00
15959;DHT22;8078;47.822;9.402;2023-12-07T11:24:16;2.60;1.00
15959;DHT22;8078;47.822;9.402;2023-12-07T11:26:42;2.80;1.00
15959;DHT22;8078;47.822;9.402;2023-12-07T11:29:10;2.80;1.00
15959;DHT22;8078;47.822;9.402;2023-12-07T11:31:36;2.80;1.00
15959;DHT22;8078;47.822;9.402;2023-12-07T11:34:06;2.60;1.00
15959;DHT22;8078;47.822;9.402;2023-12-07T11:36:33;2.60;1.00
15959;DHT22;8078;47.822;9.402;2023-12-07T11:41:34;3.00;1.00
15959;DHT22;8078;47.822;9.402;2023-12-07T11:44:00;2.90;1.00
15959;DHT22;8078;47.822;9.402;2023-12-07T11:46:25;3.00;1.00
15959;DHT22;8078;47.822;9.402;2023-12-07T11:48:51;3.20;1.00
15959;DHT22;8078;47.822;9.402;2023-12-07T11:51:17;3.40;1.00
15959;DHT22;8078;47.822;9.402;2023-12-07T11:53:43;3.30;1.00
15959;DHT22;8078;47.822;9.402;2023-12-07T11:56:09;3.00;1.00
15959;DHT22;8078;47.822;9.402;2023-12-07T11:58:36;2.80;1.00
15959;DHT22;8078;47.822;9.402;2023-12-07T12:01:03;2.70;1.00
15959;DHT22;8078;47.822;9.402;2023-12-07T12:03:30;2.90;1.00
15959;DHT22;8078;47.822;9.402;2023-12-07T12:05:57;2.80;1.00
15959;DHT22;8078;47.822;9.402;2023-12-07T12:08:23;2.70;1.00
15959;DHT22;8078;47.822;9.402;2023-12-07T12:10:50;2.90;1.00
15959;DHT22;8078;47.822;9.402;2023-12-07T12:13:17;2.90;1.00
15959;DHT22;8078;47.822;9.402;2023-12-07T12:15:44;2.70;1.00
15959;DHT22;8078;47.822;9.402;2023-12-07T12:18:12;2.90;1.00
15959;DHT22;8078;47.822;9.402;2023-12-07T12:20:39;2.90;1.00
15959;DHT22;8078;47.822;9.402;2023-12-07T12:23:05;3.00;1.00
15959;DHT22;8078;47.822;9.402;2023-12-07T12:25:32;3.30;1.00
15959;DHT22;8078;47.822;9.402;2023-12-07T12:28:02;3.30;1.00
15959;DHT22;8078;47.822;9.402;2023-12-07T12:30:29;3.60;1.00
15959;DHT22;8078;47.822;9.402;2023-12-07T12:32:56;3.40;1.00
15959;DHT22;8078;47.822;9.402;2023-12-07T12:35:22;3.30;1.00
15959;DHT22;8078;47.822;9.402;2023-12-07T12:37:48;3.00;1.00
15959;DHT22;8078;47.822;9.402;2023-12-07T12:40:16;3.10;1.00
15959;DHT22;8078;47.822;9.402;2023-12-07T12:42:48;3.40;1.00
15959;DHT22;8078;47.822;9.402;2023-12-07T12:45:15;3.50;1.00
15959;DHT22;8078;47.822;9.402;2023-12-07T12:47:42;3.20;1.00
15959;DHT22;8078;47.822;9.402;2023-12-07T12:50:09;3.20;1.00
15959;DHT22;8078;47.822;9.402;2023-12-07T12:52:35;3.20;1.00
15959;DHT22;8078;47.822;9.402;2023-12-07T12:55:01;3.30;1.00
15959;DHT22;8078;47.822;9.402;2023-12-07T12:57:28;3.80;1.00
15959;DHT22;8078;47.822;9.402;2023-12-07T12:59:54;3.80;1.00
15959;DHT22;8078;47.822;9.402;2023-12-07T13:02:20;3.70;1.00
15959;DHT22;8078;47.822;9.402;2023-12-07T13:04:47;3.60;1.00
15959;DHT22;8078;47.822;9.402;2023-12-07T13:07:13;3.60;1.00
15959;DHT22;8078;47.822;9.402;2023-12-07T13:09:41;4.10;1.00
15959;DHT22;8078;47.822;9.402;2023-12-07T13:12:09;3.90;1.00
15959;DHT22;8078;47.822;9.402;2023-12-07T13:14:34;4.40;1.00
15959;DHT22;8078;47.822;9.402;2023-12-07T13:17:01;4.40;1.00
15959;DHT22;8078;47.822;9.402;2023-12-07T13:19:28;4.30;1.00
15959;DHT22;8078;47.822;9.402;2023-12-07T13:21:53;4.10;1.00
15959;DHT22;8078;47.822;9.402;2023-12-07T13:24:19;4.30;1.00
15959;DHT22;8078;47.822;9.402;2023-12-07T13:26:44;4.30;1.00
15959;DHT22;8078;47.822;9.402;2023-12-07T13:29:10;4.40;1.00
15959;DHT22;8078;47.822;9.402;2023-12-07T13:31:36;4.30;1.00
15959;DHT22;8078;47.822;9.402;2023-12-07T13:34:01;4.70;1.00
15959;DHT22;8078;47.822;9.402;2023-12-07T13:41:21;8.10;1.00
15959;DHT22;8078;47.822;9.402;2023-12-07T13:43:47;9.20;1.00
15959;DHT22;8078;47.822;9.402;2023-12-07T13:46:19;10.40;9.00
15959;DHT22;8078;47.822;9.402;2023-12-07T13:51:12;10.10;1.00
15959;DHT22;8078;47.822;9.402;2023-12-07T13:53:38;10.90;1.00
15959;DHT22;8078;47.822;9.402;2023-12-07T13:56:04;11.40;8.10
15959;DHT22;8078;47.822;9.402;2023-12-07T13:58:30;11.30;9.50
15959;DHT22;8078;47.822;9.402;2023-12-07T14:00:56;11.20;3.80
15959;DHT22;8078;47.822;9.402;2023-12-07T14:03:22;11.10;1.60
15959;DHT22;8078;47.822;9.402;2023-12-07T14:05:48;11.10;1.00
15959;DHT22;8078;47.822;9.402;2023-12-07T14:08:14;11.20;4.30
15959;DHT22;8078;47.822;9.402;2023-12-07T14:10:39;11.40;6.90
15959;DHT22;8078;47.822;9.402;2023-12-07T14:13:05;11.40;6.30
15959;DHT22;8078;47.822;9.402;2023-12-07T14:15:30;11.60;8.70
15959;DHT22;8078;47.822;9.402;2023-12-07T14:18:00;11.50;7.70
15959;DHT22;8078;47.822;9.402;2023-12-07T14:20:25;11.30;5.60
15959;DHT22;8078;47.822;9.402;2023-12-07T14:22:53;11.10;1.00
15959;DHT22;8078;47.822;9.402;2023-12-07T14:25:19;10.90;1.00
15959;DHT22;8078;47.822;9.402;2023-12-07T14:27:45;10.70;1.00
15959;DHT22;8078;47.822;9.402;2023-12-07T14:30:11;10.40;1.00
15959;DHT22;8078;47.822;9.402;2023-12-07T14:32:37;10.20;1.00
15959;DHT22;8078;47.822;9.402;2023-12-07T14:35:03;9.90;1.00
15959;DHT22;8078;47.822;9.402;2023-12-07T14:37:28;9.60;1.00
15959;DHT22;8078;47.822;9.402;2023-12-07T14:39:54;9.40;1.00
15959;DHT22;8078;47.822;9.402;2023-12-07T14:42:20;9.50;1.00
15959;DHT22;8078;47.822;9.402;2023-12-07T14:44:45;9.90;1.00
15959;DHT22;8078;47.822;9.402;2023-12-07T14:47:11;10.10;1.00
15959;DHT22;8078;47.822;9.402;2023-12-07T14:49:36;9.80;1.00
15959;DHT22;8078;47.822;9.402;2023-12-07T14:52:02;9.70;1.00
15959;DHT22;8078;47.822;9.402;2023-12-07T14:54:28;8.90;1.00
15959;DHT22;8078;47.822;9.402;2023-12-07T14:56:53;8.20;1.00
15959;DHT22;8078;47.822;9.402;2023-12-07T14:59:19;7.00;1.00
15959;DHT22;8078;47.822;9.402;2023-12-07T15:01:47;5.70;1.00
15959;DHT22;8078;47.822;9.402;2023-12-07T15:04:15;4.50;1.00
15959;DHT22;8078;47.822;9.402;2023-12-07T15:09:06;2.90;1.00
15959;DHT22;8078;47.822;9.402;2023-12-07T15:11:33;2.40;1.00
15959;DHT22;8078;47.822;9.402;2023-12-07T15:14:01;2.00;1.00
15959;DHT22;8078;47.822;9.402;2023-12-07T15:18:52;1.30;1.00
15959;DHT22;8078;47.822;9.402;2023-12-07T15:21:18;1.20;1.00
15959;DHT22;8078;47.822;9.402;2023-12-07T15:26:11;0.70;1.00
15959;DHT22;8078;47.822;9.402;2023-12-07T15:28:38;0.50;1.00
15959;DHT22;8078;47.822;9.402;2023-12-07T15:31:07;0.30;1.00
15959;DHT22;8078;47.822;9.402;2023-12-07T15:33:33;0.10;1.00
15959;DHT22;8078;47.822;9.402;2023-12-07T15:36:00;0.00;1.00
15959;DHT22;8078;47.822;9.402;2023-12-07T15:38:26;-0.20;1.00
15959;DHT22;8078;47.822;9.402;2023-12-07T15:43:24;-0.40;1.00
15959;DHT22;8078;47.822;9.402;2023-12-07T15:45:50;-0.50;1.00
15959;DHT22;8078;47.822;9.402;2023-12-07T15:48:16;-0.60;1.00
15959;DHT22;8078;47.822;9.402;2023-12-07T15:50:42;-0.60;1.00
15959;DHT22;8078;47.822;9.402;2023-12-07T15:53:08;-0.70;1.00
15959;DHT22;8078;47.822;9.402;2023-12-07T15:55:33;-0.80;1.00
15959;DHT22;8078;47.822;9.402;2023-12-07T15:57:59;-0.80;1.00
15959;DHT22;8078;47.822;9.402;2023-12-07T16:00:24;-0.80;1.00
15959;DHT22;8078;47.822;9.402;2023-12-07T16:02:50;-0.90;1.00
15959;DHT22;8078;47.822;9.402;2023-12-07T16:05:15;-0.90;1.00
15959;DHT22;8078;47.822;9.402;2023-12-07T16:07:41;-1.00;1.00
15959;DHT22;8078;47.822;9.402;2023-12-07T16:10:07;-1.00;1.00
15959;DHT22;8078;47.822;9.402;2023-12-07T16:15:03;-1.00;1.00
15959;DHT22;8078;47.822;9.402;2023-12-07T16:17:30;-1.00;1.00
15959;DHT22;8078;47.822;9.402;2023-12-07T16:19:56;-1.00;1.00
15959;DHT22;8078;47.822;9.402;2023-12-07T16:22:21;-1.00;1.00